Time;durP1;ratioP1;P1;durP2;ratioP2;P2;SDS_P1;SDS_P2;PMS_P1;PMS_P2;Temp;Humidity;BMP_temperature;BMP_pressure;BME280_temperature;BME280_humidity;BME280_pressure;Samples;Min_cycle;Max_cycle;Signal;HPM_P1;HPM_P2
2023/07/13 00:02:23;;;;;;;0.00;0.00;;;20.40;95.40;;;;;;5053705;28;20244;-63
2023/07/13 00:04:48;;;;;;;0.00;0.00;;;20.40;95.50;;;;;;5053983;28;20193;-63
2023/07/13 00:07:14;;;;;;;0.00;0.00;;;20.40;95.80;;;;;;5053822;28;20212;-63
2023/07/13 00:09:40;;;;;;;0.00;0.00;;;20.40;95.80;;;;;;5053938;28;20192;-63
2023/07/13 00:12:28;;;;;;;0.00;0.00;;;20.30;95.90;;;;;;5053498;28;20181;-64
2023/07/13 00:14:57;;;;;;;0.20;0.20;;;20.20;95.90;;;;;;5053783;28;20201;-63
2023/07/13 00:17:23;;;;;;;0.00;0.00;;;20.20;96.00;;;;;;5053761;28;20181;-63
2023/07/13 00:19:48;;;;;;;0.00;0.00;;;20.10;96.10;;;;;;5053359;28;20181;-63
2023/07/13 00:22:14;;;;;;;0.20;0.20;;;20.00;96.20;;;;;;5053213;28;20174;-63
2023/07/13 00:24:41;;;;;;;0.00;0.00;;;19.90;96.00;;;;;;5053293;28;20237;-63
2023/07/13 00:27:09;;;;;;;0.00;0.00;;;19.90;96.50;;;;;;5053292;28;20322;-64
2023/07/13 00:29:35;;;;;;;0.10;0.10;;;19.80;96.40;;;;;;5052930;28;20221;-63
2023/07/13 00:32:01;;;;;;;0.00;0.00;;;19.70;96.60;;;;;;5052939;28;20193;-63
2023/07/13 00:34:27;;;;;;;0.00;0.00;;;19.60;96.90;;;;;;5052890;28;20182;-63
2023/07/13 00:36:52;;;;;;;0.20;0.20;;;19.60;97.10;;;;;;5051643;28;20173;-63
2023/07/13 00:39:18;;;;;;;0.00;0.00;;;19.50;97.30;;;;;;5053133;28;20253;-63
2023/07/13 00:41:44;;;;;;;0.00;0.00;;;19.50;97.50;;;;;;5052081;28;20657;-63
2023/07/13 00:44:15;;;;;;;0.00;0.00;;;19.50;97.70;;;;;;5053072;28;20185;-63
2023/07/13 00:46:40;;;;;;;0.00;0.00;;;19.50;97.80;;;;;;5052794;28;20269;-63
2023/07/13 00:49:09;;;;;;;0.00;0.00;;;19.50;97.80;;;;;;5047085;28;20272;-63
2023/07/13 00:51:46;;;;;;;0.10;0.10;;;19.40;97.90;;;;;;5046971;28;20185;-63
2023/07/13 00:54:17;;;;;;;0.00;0.00;;;19.40;98.00;;;;;;5052526;28;20260;-63
2023/07/13 00:56:46;;;;;;;0.00;0.00;;;19.40;98.20;;;;;;5049837;28;20181;-63
2023/07/13 00:59:13;;;;;;;0.00;0.00;;;19.40;98.20;;;;;;5052620;28;20633;-63
2023/07/13 01:01:39;;;;;;;0.10;0.10;;;19.30;98.20;;;;;;5052312;28;20632;-63
2023/07/13 01:04:07;;;;;;;0.00;0.00;;;19.30;98.20;;;;;;5052708;28;20192;-63
2023/07/13 01:06:37;;;;;;;0.00;0.00;;;19.30;98.30;;;;;;5037085;28;20766;-63
2023/07/13 01:09:04;;;;;;;0.00;0.00;;;19.30;98.50;;;;;;5051854;28;20175;-63
2023/07/13 01:11:29;;;;;;;0.17;0.17;;;19.20;98.60;;;;;;5051774;28;20216;-63
2023/07/13 01:13:55;;;;;;;0.00;0.00;;;19.20;98.60;;;;;;5052027;28;20259;-63
2023/07/13 01:16:30;;;;;;;0.00;0.00;;;19.20;98.70;;;;;;5052375;28;20177;-63
2023/07/13 01:18:59;;;;;;;0.00;0.00;;;19.20;98.70;;;;;;5052158;28;20181;-63
2023/07/13 01:21:26;;;;;;;0.00;0.00;;;19.20;98.90;;;;;;5051925;28;20186;-63
2023/07/13 01:23:52;;;;;;;0.52;0.52;;;19.20;99.00;;;;;;5052679;28;20177;-63
2023/07/13 01:26:17;;;;;;;0.00;0.00;;;19.10;99.20;;;;;;5052254;28;20690;-63
2023/07/13 01:28:44;;;;;;;0.10;0.10;;;19.10;99.20;;;;;;5052558;28;20266;-63
2023/07/13 01:31:10;;;;;;;0.00;0.00;;;19.10;99.10;;;;;;5052694;28;20197;-63
2023/07/13 01:33:39;;;;;;;0.00;0.00;;;19.00;99.00;;;;;;5052341;28;20188;-63
2023/07/13 01:36:05;;;;;;;0.00;0.00;;;19.00;99.30;;;;;;5052613;28;20188;-63
2023/07/13 01:38:31;;;;;;;0.00;0.00;;;19.00;99.50;;;;;;5052443;28;20180;-63
2023/07/13 01:40:57;;;;;;;0.00;0.00;;;19.00;99.60;;;;;;5052671;28;20177;-63
2023/07/13 01:43:22;;;;;;;0.00;0.00;;;19.00;99.70;;;;;;5052173;28;20271;-63
2023/07/13 01:45:48;;;;;;;0.00;0.00;;;18.90;99.60;;;;;;5052456;28;20263;-63
2023/07/13 01:48:14;;;;;;;0.00;0.00;;;18.90;99.70;;;;;;5051912;28;20182;-63
2023/07/13 01:50:39;;;;;;;0.00;0.00;;;18.80;99.90;;;;;;5052300;28;20177;-62
2023/07/13 01:53:05;;;;;;;0.00;0.00;;;18.80;99.90;;;;;;5051063;28;20181;-64
2023/07/13 01:55:31;;;;;;;0.00;0.00;;;18.80;99.90;;;;;;5051903;28;20202;-64
2023/07/13 01:57:56;;;;;;;0.00;0.00;;;18.70;99.90;;;;;;5051655;28;20184;-64
2023/07/13 02:00:22;;;;;;;0.00;0.00;;;18.70;99.90;;;;;;5051915;28;20170;-64
2023/07/13 02:02:48;;;;;;;0.10;0.10;;;18.60;99.90;;;;;;5051719;28;20883;-65
2023/07/13 02:05:14;;;;;;;0.00;0.00;;;18.50;99.90;;;;;;5051710;28;20181;-64
2023/07/13 02:07:40;;;;;;;0.00;0.00;;;18.50;99.90;;;;;;5051765;28;20240;-64
2023/07/13 02:10:07;;;;;;;0.00;0.00;;;18.40;99.90;;;;;;5051724;28;20251;-64
2023/07/13 02:12:33;;;;;;;0.00;0.00;;;18.30;99.90;;;;;;5051426;28;20181;-64
2023/07/13 02:14:59;;;;;;;0.00;0.00;;;18.20;99.90;;;;;;5051528;28;20177;-64
2023/07/13 02:17:26;;;;;;;0.00;0.00;;;18.10;99.90;;;;;;5051434;28;20531;-64
2023/07/13 02:19:51;;;;;;;0.00;0.00;;;18.10;99.90;;;;;;5051730;28;20174;-65
2023/07/13 02:22:17;;;;;;;0.00;0.00;;;18.10;99.90;;;;;;5051180;28;20585;-65
2023/07/13 02:24:42;;;;;;;0.00;0.00;;;18.00;99.90;;;;;;5051370;28;20580;-64
2023/07/13 02:27:08;;;;;;;0.00;0.00;;;17.90;99.90;;;;;;5050680;28;20208;-65
2023/07/13 02:29:33;;;;;;;0.00;0.00;;;17.90;99.90;;;;;;5051235;28;20232;-64
2023/07/13 02:31:59;;;;;;;0.00;0.00;;;17.80;99.90;;;;;;5051327;28;20181;-64
2023/07/13 02:34:24;;;;;;;0.00;0.00;;;17.80;99.90;;;;;;5050777;28;20185;-64
2023/07/13 02:36:50;;;;;;;0.00;0.00;;;17.80;99.90;;;;;;5051009;28;20279;-64
2023/07/13 02:39:16;;;;;;;0.00;0.00;;;17.80;99.90;;;;;;5051301;28;20165;-64
2023/07/13 02:41:42;;;;;;;0.00;0.00;;;17.70;99.90;;;;;;5051252;28;20181;-64
2023/07/13 02:44:08;;;;;;;0.00;0.00;;;17.60;99.90;;;;;;5051390;28;20550;-65
2023/07/13 02:46:36;;;;;;;0.00;0.00;;;17.60;99.90;;;;;;5051204;28;20221;-64
2023/07/13 02:49:02;;;;;;;0.00;0.00;;;17.50;99.90;;;;;;5046263;28;20205;-64
2023/07/13 02:51:28;;;;;;;0.00;0.00;;;17.40;99.90;;;;;;5049587;28;20189;-64
2023/07/13 02:53:54;;;;;;;0.00;0.00;;;17.40;99.90;;;;;;5051724;28;20196;-64
2023/07/13 02:56:25;;;;;;;0.00;0.00;;;17.40;99.90;;;;;;5051238;28;20177;-64
2023/07/13 02:58:50;;;;;;;0.00;0.00;;;17.40;99.90;;;;;;5050704;28;20173;-64
2023/07/13 03:01:18;;;;;;;0.03;0.03;;;17.40;99.90;;;;;;5050782;28;20292;-64
2023/07/13 03:03:45;;;;;;;0.00;0.00;;;17.50;99.90;;;;;;5050070;28;20220;-64
2023/07/13 03:06:11;;;;;;;0.00;0.00;;;17.50;99.90;;;;;;5050375;28;20213;-64
2023/07/13 03:08:37;;;;;;;0.00;0.00;;;17.50;99.90;;;;;;5050690;28;20203;-64
2023/07/13 03:11:08;;;;;;;0.00;0.00;;;17.50;99.90;;;;;;5050669;28;20177;-64
2023/07/13 03:13:34;;;;;;;0.00;0.00;;;17.50;99.90;;;;;;5050971;28;20295;-64
2023/07/13 03:16:00;;;;;;;0.00;0.00;;;17.50;99.90;;;;;;5050804;28;20181;-64
2023/07/13 03:18:27;;;;;;;0.00;0.00;;;17.50;99.90;;;;;;5049912;28;20188;-64
2023/07/13 03:20:53;;;;;;;0.00;0.00;;;17.50;99.90;;;;;;5060377;28;20169;-65
2023/07/13 03:23:20;;;;;;;0.00;0.00;;;17.50;99.90;;;;;;5050140;28;20596;-64
2023/07/13 03:25:45;;;;;;;0.00;0.00;;;17.40;99.90;;;;;;5050925;28;20181;-64
2023/07/13 03:28:12;;;;;;;0.00;0.00;;;17.30;99.90;;;;;;5051589;28;20221;-63
2023/07/13 03:30:37;;;;;;;0.00;0.00;;;17.20;99.90;;;;;;5050620;28;20239;-62
2023/07/13 03:33:03;;;;;;;0.00;0.00;;;17.20;99.90;;;;;;5050675;28;20178;-64
2023/07/13 03:35:29;;;;;;;0.00;0.00;;;17.30;99.90;;;;;;5050219;28;20265;-62
2023/07/13 03:37:54;;;;;;;0.00;0.00;;;17.30;99.90;;;;;;5050932;28;20185;-66
2023/07/13 03:40:20;;;;;;;0.00;0.00;;;17.30;99.90;;;;;;5049440;28;20536;-66
2023/07/13 03:42:46;;;;;;;0.00;0.00;;;17.30;99.90;;;;;;5051016;28;20178;-66
2023/07/13 03:45:12;;;;;;;0.00;0.00;;;17.30;99.90;;;;;;5050857;28;20232;-65
2023/07/13 03:47:37;;;;;;;0.00;0.00;;;17.40;99.90;;;;;;5050168;28;20208;-61
2023/07/13 03:50:03;;;;;;;0.00;0.00;;;17.40;99.90;;;;;;5047813;28;20586;-65
2023/07/13 03:52:29;;;;;;;0.03;0.03;;;17.50;99.90;;;;;;5049292;28;20193;-63
2023/07/13 03:54:54;;;;;;;0.00;0.00;;;17.50;99.90;;;;;;5049931;28;20174;-63
2023/07/13 03:57:19;;;;;;;0.00;0.00;;;17.60;99.90;;;;;;5049928;28;20178;-62
2023/07/13 03:59:45;;;;;;;0.00;0.00;;;17.60;99.90;;;;;;5050126;28;20652;-63
2023/07/13 04:02:10;;;;;;;0.00;0.00;;;17.70;99.90;;;;;;5049981;28;20194;-61
2023/07/13 04:04:36;;;;;;;0.00;0.00;;;17.70;99.90;;;;;;5049823;28;20189;-61
2023/07/13 04:07:02;;;;;;;0.00;0.00;;;17.70;99.90;;;;;;5048593;28;20215;-60
2023/07/13 04:09:27;;;;;;;0.00;0.00;;;17.70;99.90;;;;;;5050014;28;20243;-61
2023/07/13 04:11:53;;;;;;;0.00;0.00;;;17.70;99.90;;;;;;5053143;28;20193;-61
2023/07/13 04:14:18;;;;;;;0.00;0.00;;;17.60;99.90;;;;;;5052962;28;20209;-61
2023/07/13 04:16:44;;;;;;;0.00;0.00;;;17.50;99.90;;;;;;5052704;28;20196;-63
2023/07/13 04:19:10;;;;;;;0.00;0.00;;;17.50;99.90;;;;;;5053768;28;20173;-62
2023/07/13 04:21:36;;;;;;;0.00;0.00;;;17.40;99.90;;;;;;5052230;28;20189;-63
2023/07/13 04:24:02;;;;;;;0.00;0.00;;;17.40;99.90;;;;;;5053372;28;20173;-62
2023/07/13 04:26:29;;;;;;;0.00;0.00;;;17.40;99.90;;;;;;5053481;28;20213;-62
2023/07/13 04:28:55;;;;;;;0.00;0.00;;;17.50;99.90;;;;;;5053419;28;20250;-62
2023/07/13 04:31:21;;;;;;;0.00;0.00;;;17.50;99.90;;;;;;5053478;28;20312;-62
2023/07/13 04:33:47;;;;;;;0.00;0.00;;;17.60;99.90;;;;;;5053629;28;20260;-63
2023/07/13 04:36:14;;;;;;;0.00;0.00;;;17.60;99.90;;;;;;5053534;28;20173;-63
2023/07/13 04:38:39;;;;;;;0.00;0.00;;;17.70;99.90;;;;;;5053345;28;20181;-62
2023/07/13 04:41:06;;;;;;;0.00;0.00;;;17.80;99.90;;;;;;5053123;28;20529;-62
2023/07/13 04:43:32;;;;;;;0.00;0.00;;;17.80;99.90;;;;;;5052935;28;20228;-62
2023/07/13 04:46:07;;;;;;;0.00;0.00;;;17.80;99.90;;;;;;5053034;28;20201;-63
2023/07/13 04:48:34;;;;;;;0.00;0.00;;;17.90;99.90;;;;;;5052785;28;20177;-63
2023/07/13 04:50:59;;;;;;;0.00;0.00;;;17.90;99.90;;;;;;5053060;28;20174;-63
2023/07/13 04:53:26;;;;;;;0.00;0.00;;;17.90;99.90;;;;;;5052570;28;20512;-63
2023/07/13 04:55:51;;;;;;;0.00;0.00;;;17.90;99.90;;;;;;5051768;28;20169;-63
2023/07/13 04:58:17;;;;;;;0.00;0.00;;;18.00;99.90;;;;;;5053089;28;20521;-63
2023/07/13 05:00:43;;;;;;;0.00;0.00;;;18.00;99.90;;;;;;5052714;28;20170;-63
2023/07/13 05:03:08;;;;;;;0.00;0.00;;;18.00;99.90;;;;;;5052462;28;20239;-63
2023/07/13 05:05:34;;;;;;;0.00;0.00;;;18.10;99.90;;;;;;5052642;28;20173;-63
2023/07/13 05:07:59;;;;;;;0.00;0.00;;;18.20;99.90;;;;;;5052772;28;20204;-63
2023/07/13 05:10:25;;;;;;;0.00;0.00;;;18.40;99.90;;;;;;5052612;28;20269;-63
2023/07/13 05:12:51;;;;;;;0.00;0.00;;;18.60;99.90;;;;;;5052819;28;20188;-63
2023/07/13 05:15:20;;;;;;;0.00;0.00;;;18.90;99.90;;;;;;5051442;28;20213;-63
2023/07/13 05:17:47;;;;;;;0.00;0.00;;;19.20;99.90;;;;;;5052752;28;20632;-63
2023/07/13 05:20:12;;;;;;;0.00;0.00;;;19.40;99.90;;;;;;5052267;28;20564;-63
2023/07/13 05:22:38;;;;;;;0.00;0.00;;;19.60;99.90;;;;;;5051397;28;20184;-63
2023/07/13 05:25:07;;;;;;;0.00;0.00;;;20.10;99.90;;;;;;5052318;28;20660;-63
2023/07/13 05:27:34;;;;;;;0.00;0.00;;;21.00;99.90;;;;;;5051690;28;20281;-63
2023/07/13 05:30:00;;;;;;;0.00;0.00;;;21.80;98.40;;;;;;5052369;28;20177;-63
2023/07/13 05:32:25;;;;;;;0.00;0.00;;;22.40;96.80;;;;;;5051981;28;20185;-63
2023/07/13 05:34:51;;;;;;;0.00;0.00;;;22.80;95.00;;;;;;5052169;28;20228;-63
2023/07/13 05:37:16;;;;;;;0.00;0.00;;;23.10;94.50;;;;;;5052151;28;20185;-63
2023/07/13 05:39:42;;;;;;;0.00;0.00;;;23.20;92.80;;;;;;5052061;28;20181;-63
2023/07/13 05:42:07;;;;;;;0.00;0.00;;;23.10;91.70;;;;;;5052033;28;20264;-63
2023/07/13 05:44:33;;;;;;;0.08;0.08;;;22.70;91.50;;;;;;5051581;28;20181;-63
2023/07/13 05:46:58;;;;;;;0.00;0.00;;;22.60;91.60;;;;;;5051757;28;20225;-63
2023/07/13 05:49:24;;;;;;;0.00;0.00;;;22.30;91.50;;;;;;5051518;28;20675;-63
2023/07/13 05:51:50;;;;;;;0.00;0.00;;;22.10;91.70;;;;;;5050642;28;20533;-63
2023/07/13 05:54:15;;;;;;;0.00;0.00;;;21.90;91.90;;;;;;5051832;28;20220;-64
2023/07/13 05:56:41;;;;;;;0.00;0.00;;;21.70;92.30;;;;;;5050358;28;20204;-63
2023/07/13 05:59:06;;;;;;;0.00;0.00;;;21.60;92.20;;;;;;5051704;28;20185;-63
2023/07/13 06:01:32;;;;;;;0.00;0.00;;;21.50;92.60;;;;;;5051532;28;20664;-61
2023/07/13 06:03:58;;;;;;;0.00;0.00;;;21.60;92.80;;;;;;5051906;28;20181;-61
2023/07/13 06:06:23;;;;;;;0.00;0.00;;;21.70;92.80;;;;;;5051360;28;20208;-61
2023/07/13 06:08:49;;;;;;;0.00;0.00;;;21.80;93.10;;;;;;5051627;28;20188;-61
2023/07/13 06:11:21;;;;;;;0.00;0.00;;;22.20;92.60;;;;;;5051491;28;20604;-61
2023/07/13 06:13:47;;;;;;;0.22;0.22;;;22.40;91.90;;;;;;5051605;28;20636;-61
2023/07/13 06:16:14;;;;;;;0.00;0.00;;;22.70;92.20;;;;;;5051661;28;20201;-61
2023/07/13 06:18:40;;;;;;;0.00;0.00;;;22.80;91.60;;;;;;5051587;28;20181;-61
2023/07/13 06:21:11;;;;;;;0.00;0.00;;;23.20;91.40;;;;;;5051730;28;20529;-63
2023/07/13 06:23:37;;;;;;;0.00;0.00;;;23.70;90.80;;;;;;5051644;28;20185;-63
2023/07/13 06:26:03;;;;;;;0.00;0.00;;;24.00;89.80;;;;;;5051461;28;20205;-62
2023/07/13 06:28:30;;;;;;;0.00;0.00;;;24.50;89.50;;;;;;5051397;28;20283;-63
2023/07/13 06:30:55;;;;;;;0.00;0.00;;;25.30;88.30;;;;;;5051704;28;20181;-63
2023/07/13 06:33:21;;;;;;;0.00;0.00;;;26.20;83.90;;;;;;5051207;28;20185;-63
2023/07/13 06:35:46;;;;;;;0.00;0.00;;;26.70;79.70;;;;;;5051685;28;20174;-63
2023/07/13 06:38:12;;;;;;;0.00;0.00;;;26.60;75.90;;;;;;5051366;28;20181;-62
2023/07/13 06:40:37;;;;;;;0.00;0.00;;;26.30;74.70;;;;;;5051311;28;20530;-62
2023/07/13 06:43:03;;;;;;;0.00;0.00;;;26.30;76.30;;;;;;5051376;28;20528;-62
2023/07/13 06:45:28;;;;;;;0.22;0.22;;;26.50;74.70;;;;;;5051260;28;20176;-62
2023/07/13 06:47:54;;;;;;;0.00;0.00;;;26.90;71.00;;;;;;5051426;28;20213;-62
2023/07/13 06:50:19;;;;;;;0.00;0.00;;;27.80;70.20;;;;;;5051109;28;20652;-62
2023/07/13 06:52:45;;;;;;;0.00;0.00;;;28.60;68.20;;;;;;5051106;28;20526;-63
2023/07/13 06:55:10;;;;;;;0.00;0.00;;;29.50;64.20;;;;;;5051222;28;20173;-63
2023/07/13 06:57:36;;;;;;;0.00;0.00;;;30.20;59.70;;;;;;5051067;28;20185;-63
2023/07/13 07:00:01;;;;;;;0.00;0.00;;;30.70;56.80;;;;;;5051056;28;20173;-63
2023/07/13 07:02:27;;;;;;;0.00;0.00;;;30.50;55.40;;;;;;5051062;28;20215;-63
2023/07/13 07:04:54;;;;;;;0.00;0.00;;;30.60;55.50;;;;;;5051495;28;20208;-63
2023/07/13 07:07:19;;;;;;;0.00;0.00;;;31.10;54.80;;;;;;5050147;28;20221;-63
2023/07/13 07:09:45;;;;;;;0.00;0.00;;;31.60;55.20;;;;;;5051292;28;20658;-63
2023/07/13 07:12:10;;;;;;;0.00;0.00;;;32.10;53.30;;;;;;5051360;28;20181;-63
2023/07/13 07:14:36;;;;;;;0.00;0.00;;;31.80;53.30;;;;;;5051316;28;20181;-63
2023/07/13 07:17:01;;;;;;;0.00;0.00;;;31.90;53.50;;;;;;5051278;28;20644;-63
2023/07/13 07:19:30;;;;;;;0.00;0.00;;;32.20;53.30;;;;;;5051148;28;20180;-63
2023/07/13 07:21:56;;;;;;;0.00;0.00;;;32.60;52.20;;;;;;5051125;28;20168;-63
2023/07/13 07:24:21;;;;;;;0.00;0.00;;;33.10;50.90;;;;;;5051050;28;20223;-63
2023/07/13 07:26:47;;;;;;;0.00;0.00;;;33.30;49.70;;;;;;5051136;28;20225;-63
2023/07/13 07:29:12;;;;;;;0.00;0.00;;;33.80;49.80;;;;;;5051158;28;20233;-63
2023/07/13 07:31:38;;;;;;;0.00;0.00;;;33.90;47.80;;;;;;5051118;28;20263;-63
2023/07/13 07:34:03;;;;;;;0.00;0.00;;;34.20;46.90;;;;;;5049696;28;20535;-63
2023/07/13 07:36:29;;;;;;;0.00;0.00;;;34.50;47.10;;;;;;5051159;28;20189;-63
2023/07/13 07:38:54;;;;;;;0.00;0.00;;;34.80;46.30;;;;;;5051122;28;20644;-63
2023/07/13 07:41:21;;;;;;;0.00;0.00;;;35.20;45.10;;;;;;5050924;28;20299;-63
2023/07/13 07:43:46;;;;;;;0.00;0.00;;;35.20;44.10;;;;;;5051292;28;20268;-63
2023/07/13 07:46:12;;;;;;;0.00;0.00;;;34.90;44.30;;;;;;5052978;28;20240;-63
2023/07/13 07:48:37;;;;;;;0.00;0.00;;;34.90;45.30;;;;;;5054780;28;20173;-63
2023/07/13 07:51:03;;;;;;;0.00;0.00;;;34.80;43.80;;;;;;5054863;28;20181;-63
2023/07/13 07:53:29;;;;;;;0.00;0.00;;;35.20;44.40;;;;;;5054852;28;20185;-63
2023/07/13 07:55:54;;;;;;;0.00;0.00;;;35.10;42.30;;;;;;5054908;28;20173;-64
2023/07/13 07:58:20;;;;;;;0.00;0.00;;;34.80;42.90;;;;;;5054631;28;20238;-64
2023/07/13 08:00:45;;;;;;;0.00;0.00;;;34.50;42.40;;;;;;5054707;28;20172;-64
2023/07/13 08:03:11;;;;;;;0.00;0.00;;;34.30;43.40;;;;;;5054628;28;20220;-64
2023/07/13 08:05:36;;;;;;;0.00;0.00;;;34.10;44.00;;;;;;5054621;28;20243;-64
2023/07/13 08:08:03;;;;;;;0.00;0.00;;;33.80;42.40;;;;;;5054504;28;20330;-64
2023/07/13 08:10:28;;;;;;;0.00;0.00;;;33.60;43.40;;;;;;5054466;28;20173;-64
2023/07/13 08:12:54;;;;;;;0.00;0.00;;;33.30;43.80;;;;;;5054532;28;20660;-64
2023/07/13 08:15:20;;;;;;;0.00;0.00;;;33.10;43.50;;;;;;5054338;28;20208;-64
2023/07/13 08:17:47;;;;;;;0.00;0.00;;;33.30;44.90;;;;;;5054605;28;20267;-64
2023/07/13 08:20:13;;;;;;;0.00;0.00;;;33.00;43.90;;;;;;5054414;28;20655;-64
2023/07/13 08:22:39;;;;;;;0.00;0.00;;;33.10;43.10;;;;;;5054248;28;20185;-64
2023/07/13 08:25:05;;;;;;;0.00;0.00;;;32.90;42.80;;;;;;5054227;28;20177;-65
2023/07/13 08:27:31;;;;;;;0.00;0.00;;;33.10;43.90;;;;;;5053915;28;20221;-64
2023/07/13 08:29:56;;;;;;;0.00;0.00;;;33.30;42.90;;;;;;5054259;28;20185;-64
2023/07/13 08:32:22;;;;;;;0.00;0.00;;;33.80;42.40;;;;;;5053887;28;20208;-64
2023/07/13 08:34:48;;;;;;;0.00;0.00;;;34.00;43.80;;;;;;5054127;28;20168;-63
2023/07/13 08:37:14;;;;;;;0.00;0.00;;;34.10;42.70;;;;;;5054190;28;20173;-64
2023/07/13 08:39:40;;;;;;;0.00;0.00;;;34.30;42.20;;;;;;5054129;28;20639;-64
2023/07/13 08:42:22;;;;;;;0.00;0.00;;;34.60;41.60;;;;;;5054034;28;20200;-64
2023/07/13 08:45:05;;;;;;;0.00;0.00;;;34.90;40.90;;;;;;5054007;28;20180;-64
2023/07/13 08:47:33;;;;;;;0.00;0.00;;;34.50;41.50;;;;;;5053754;28;20200;-64
2023/07/13 08:49:59;;;;;;;0.00;0.00;;;34.40;42.40;;;;;;5053837;28;20191;-64
2023/07/13 08:52:40;;;;;;;0.00;0.00;;;34.40;41.30;;;;;;5053675;28;20204;-63
2023/07/13 08:55:14;;;;;;;0.00;0.00;;;34.00;41.70;;;;;;5053622;28;20176;-63
2023/07/13 08:57:42;;;;;;;0.00;0.00;;;34.10;41.80;;;;;;5052445;28;20645;-63
2023/07/13 09:00:12;;;;;;;0.45;0.45;;;34.10;41.90;;;;;;5053640;28;20652;-63
2023/07/13 09:02:58;;;;;;;0.00;0.00;;;34.00;42.20;;;;;;5053366;28;20196;-63
2023/07/13 09:05:40;;;;;;;0.00;0.00;;;33.20;41.90;;;;;;5053238;28;20587;-64
2023/07/13 09:08:24;;;;;;;0.00;0.00;;;33.10;43.70;;;;;;5053344;28;20303;-63
2023/07/13 09:10:59;;;;;;;0.00;0.00;;;33.30;43.20;;;;;;5053655;28;20180;-64
2023/07/13 09:13:39;;;;;;;0.00;0.00;;;33.30;43.00;;;;;;5053326;28;20651;-63
2023/07/13 09:16:05;;;;;;;0.00;0.00;;;33.20;43.10;;;;;;5053262;28;20181;-64
2023/07/13 09:18:48;;;;;;;0.00;0.00;;;32.90;43.30;;;;;;5053165;28;20189;-63
2023/07/13 09:21:18;;;;;;;0.00;0.00;;;33.00;43.00;;;;;;5053257;28;20199;-64
2023/07/13 09:23:43;;;;;;;0.00;0.00;;;32.80;42.60;;;;;;5053041;28;20655;-63
2023/07/13 09:26:20;;;;;;;0.00;0.00;;;32.50;43.80;;;;;;5051892;28;20193;-63
2023/07/13 09:28:49;;;;;;;0.00;0.00;;;32.20;43.80;;;;;;5052759;28;20306;-63
2023/07/13 09:31:26;;;;;;;0.00;0.00;;;31.80;44.90;;;;;;5053052;28;20181;-63
2023/07/13 09:33:51;;;;;;;0.00;0.00;;;32.00;45.00;;;;;;5052708;28;20679;-63
2023/07/13 09:36:24;;;;;;;0.00;0.00;;;32.30;43.80;;;;;;5051474;28;20185;-63
2023/07/13 09:39:08;;;;;;;0.00;0.00;;;32.50;43.60;;;;;;5052588;28;20196;-63
2023/07/13 09:42:00;;;;;;;0.00;0.00;;;32.70;43.30;;;;;;5051540;28;20252;-63
2023/07/13 09:44:35;;;;;;;0.00;0.00;;;33.10;42.90;;;;;;5052711;28;20178;-63
2023/07/13 09:47:01;;;;;;;0.00;0.00;;;33.10;42.30;;;;;;5052694;28;20236;-64
2023/07/13 09:49:38;;;;;;;0.00;0.00;;;32.50;43.30;;;;;;5052514;28;20181;-63
2023/07/13 09:52:06;;;;;;;0.00;0.00;;;32.40;43.40;;;;;;5052590;28;20177;-63
2023/07/13 09:54:36;;;;;;;0.00;0.00;;;32.10;43.90;;;;;;5052417;28;20608;-63
2023/07/13 09:57:03;;;;;;;0.00;0.00;;;31.80;43.80;;;;;;5052388;28;20644;-63
2023/07/13 09:59:31;;;;;;;0.00;0.00;;;31.80;44.80;;;;;;5052359;28;20702;-63
2023/07/13 10:01:57;;;;;;;0.00;0.00;;;31.80;43.50;;;;;;5052564;28;20177;-63
2023/07/13 10:04:31;;;;;;;0.00;0.00;;;31.10;43.30;;;;;;5052218;28;20257;-63
2023/07/13 10:07:08;;;;;;;0.00;0.00;;;31.00;44.90;;;;;;5052303;28;20668;-63
2023/07/13 10:09:34;;;;;;;0.00;0.00;;;31.10;45.40;;;;;;5051797;28;20177;-63
2023/07/13 10:11:59;;;;;;;0.00;0.00;;;31.20;44.30;;;;;;5052435;28;20200;-63
2023/07/13 10:14:26;;;;;;;0.00;0.00;;;31.20;44.30;;;;;;5052021;28;20197;-63
2023/07/13 10:17:02;;;;;;;0.00;0.00;;;31.50;46.00;;;;;;5052203;28;20181;-64
2023/07/13 10:19:32;;;;;;;0.00;0.00;;;31.70;44.30;;;;;;5051974;28;20263;-63
2023/07/13 10:21:59;;;;;;;0.00;0.00;;;31.90;44.60;;;;;;5051956;28;20181;-63
2023/07/13 10:24:37;;;;;;;0.00;0.00;;;32.00;44.50;;;;;;5051831;28;20268;-63
2023/07/13 10:27:25;;;;;;;0.00;0.00;;;31.80;43.10;;;;;;5051843;28;20687;-63
2023/07/13 10:30:00;;;;;;;0.00;0.00;;;31.80;42.60;;;;;;5052106;28;20547;-63
2023/07/13 10:32:26;;;;;;;0.00;0.00;;;31.30;42.90;;;;;;5051871;28;20177;-62
2023/07/13 10:34:52;;;;;;;0.00;0.00;;;31.60;43.80;;;;;;5051970;28;20200;-63
2023/07/13 10:37:32;;;;;;;0.00;0.00;;;31.90;43.60;;;;;;5051824;28;20174;-63
2023/07/13 10:39:59;;;;;;;0.00;0.00;;;31.60;43.10;;;;;;5051968;28;20238;-63
2023/07/13 10:42:33;;;;;;;0.00;0.00;;;31.60;42.60;;;;;;5051676;28;20555;-63
2023/07/13 10:44:58;;;;;;;0.00;0.00;;;31.20;42.80;;;;;;5051855;28;20184;-62
2023/07/13 10:47:24;;;;;;;0.00;0.00;;;30.30;41.70;;;;;;5051556;28;20217;-63
2023/07/13 10:49:54;;;;;;;0.00;0.00;;;29.90;42.90;;;;;;5051656;28;20173;-62
2023/07/13 10:52:43;;;;;;;0.00;0.00;;;29.80;42.80;;;;;;5051630;28;20235;-63
2023/07/13 10:55:36;;;;;;;0.00;0.00;;;29.70;43.80;;;;;;5051675;28;20205;-63
2023/07/13 10:58:11;;;;;;;0.00;0.00;;;29.60;43.60;;;;;;5051566;28;20173;-63
2023/07/13 11:00:47;;;;;;;0.00;0.00;;;29.80;43.70;;;;;;5051637;28;20187;-63
2023/07/13 11:03:16;;;;;;;0.00;0.00;;;29.80;42.50;;;;;;5051518;28;20172;-62
2023/07/13 11:05:42;;;;;;;0.00;0.00;;;30.10;42.40;;;;;;5051363;28;20188;-62
2023/07/13 11:08:19;;;;;;;0.10;0.10;;;29.90;42.40;;;;;;5051328;28;20664;-63
2023/07/13 11:10:52;;;;;;;0.00;0.00;;;30.10;42.80;;;;;;5051399;28;20186;-63
2023/07/13 11:13:38;;;;;;;0.00;0.00;;;30.30;42.70;;;;;;5051359;28;20276;-62
2023/07/13 11:16:22;;;;;;;0.00;0.00;;;30.60;42.40;;;;;;5050010;28;20166;-62
2023/07/13 11:18:53;;;;;;;0.00;0.00;;;30.80;42.70;;;;;;5051491;28;20173;-63
2023/07/13 11:21:26;;;;;;;0.00;0.00;;;30.70;41.30;;;;;;5053474;28;20648;-63
2023/07/13 11:24:01;;;;;;;0.10;0.10;;;30.50;41.40;;;;;;5055616;28;20185;-62
2023/07/13 11:26:41;;;;;;;0.00;0.00;;;30.30;42.40;;;;;;5055361;28;20283;-62
2023/07/13 11:29:26;;;;;;;0.00;0.00;;;30.40;42.30;;;;;;5055240;28;20252;-63
2023/07/13 11:31:56;;;;;;;0.00;0.00;;;30.70;42.50;;;;;;5055288;28;20710;-63
2023/07/13 11:34:41;;;;;;;0.00;0.00;;;30.60;40.70;;;;;;5055066;28;20177;-63
2023/07/13 11:37:13;;;;;;;0.00;0.00;;;30.40;41.20;;;;;;5055282;28;20651;-63
2023/07/13 11:39:43;;;;;;;0.00;0.00;;;30.00;41.80;;;;;;5055119;28;20190;-63
2023/07/13 11:42:17;;;;;;;0.00;0.00;;;30.10;43.20;;;;;;5055137;28;20256;-63
2023/07/13 11:44:48;;;;;;;0.00;0.00;;;30.20;43.10;;;;;;5054978;28;20629;-63
2023/07/13 11:47:22;;;;;;;0.00;0.00;;;30.40;43.00;;;;;;5055035;28;20304;-62
2023/07/13 11:49:56;;;;;;;0.00;0.00;;;30.70;42.60;;;;;;5054954;28;20316;-63
2023/07/13 11:52:34;;;;;;;0.22;0.22;;;31.00;42.30;;;;;;5054738;28;20191;-63
2023/07/13 11:55:04;;;;;;;0.00;0.00;;;30.80;41.70;;;;;;5054998;28;20177;-62
2023/07/13 11:57:37;;;;;;;0.00;0.00;;;30.30;42.20;;;;;;5054698;28;20178;-62
2023/07/13 12:00:12;;;;;;;0.00;0.00;;;29.80;42.70;;;;;;5054758;28;20170;-62
2023/07/13 12:02:42;;;;;;;0.00;0.00;;;29.50;43.40;;;;;;5054658;28;20185;-62
2023/07/13 12:05:12;;;;;;;0.00;0.00;;;29.50;44.60;;;;;;5054821;28;20185;-62
2023/07/13 12:07:38;;;;;;;0.00;0.00;;;29.30;44.20;;;;;;5054487;28;20240;-62
2023/07/13 12:10:19;;;;;;;0.00;0.00;;;28.80;44.30;;;;;;5054387;28;20259;-62
2023/07/13 12:13:00;;;;;;;0.00;0.00;;;28.40;45.50;;;;;;5054458;28;20173;-62
2023/07/13 12:15:43;;;;;;;0.00;0.00;;;28.20;46.70;;;;;;5054263;28;20169;-63
2023/07/13 12:18:26;;;;;;;0.00;0.00;;;28.30;47.00;;;;;;5054500;28;20201;-62
2023/07/13 12:20:54;;;;;;;0.03;0.03;;;28.70;46.80;;;;;;5054607;28;20261;-63
2023/07/13 12:23:27;;;;;;;0.00;0.00;;;29.00;46.80;;;;;;5054111;28;20545;-63
2023/07/13 12:25:53;;;;;;;0.00;0.00;;;29.40;47.30;;;;;;5054399;28;20181;-63
2023/07/13 12:28:37;;;;;;;0.00;0.00;;;29.80;46.30;;;;;;5053973;28;20229;-62
2023/07/13 12:31:23;;;;;;;0.00;0.00;;;30.00;45.10;;;;;;5053869;28;20223;-63
2023/07/13 12:33:57;;;;;;;0.00;0.00;;;29.90;45.00;;;;;;5054307;28;20640;-62
2023/07/13 12:36:22;;;;;;;0.00;0.00;;;29.70;45.30;;;;;;5053934;28;20252;-63
2023/07/13 12:38:48;;;;;;;0.00;0.00;;;29.20;45.10;;;;;;5054061;28;20654;-63
2023/07/13 12:41:15;;;;;;;0.00;0.00;;;28.80;45.90;;;;;;5054064;28;20224;-63
2023/07/13 12:43:41;;;;;;;0.00;0.00;;;28.90;47.00;;;;;;5053841;28;20957;-63
2023/07/13 12:46:20;;;;;;;0.00;0.00;;;29.00;46.50;;;;;;5053937;28;20197;-62
2023/07/13 12:48:50;;;;;;;0.52;0.10;;;29.00;46.80;;;;;;5052419;28;20181;-64
2023/07/13 12:51:16;;;;;;;0.00;0.00;;;29.00;45.80;;;;;;5053783;28;20231;-63
2023/07/13 12:53:48;;;;;;;0.00;0.00;;;29.00;46.50;;;;;;5053677;28;20176;-62
2023/07/13 12:56:23;;;;;;;0.00;0.00;;;29.40;46.60;;;;;;5053629;28;20227;-63